Time;durP1;ratioP1;P1;durP2;ratioP2;P2;SDS_P1;SDS_P2;PMS_P1;PMS_P2;Temp;Humidity;BMP_temperature;BMP_pressure;BME280_temperature;BME280_humidity;BME280_pressure;Samples;Min_cycle;Max_cycle;Signal;HPM_P1;HPM_P2
2021/09/09 00:00:24;;;;;;;10.93;9.32;;;18.00;99.90;;;;;;6144188;28;20486;-78
2021/09/09 00:03:25;;;;;;;12.40;8.52;;;18.10;99.90;;;;;;6145132;28;20101;-79
2021/09/09 00:06:25;;;;;;;11.52;8.63;;;18.20;99.90;;;;;;6176617;28;20026;-79
2021/09/09 00:09:26;;;;;;;11.55;8.20;;;18.20;99.90;;;;;;6176600;28;20035;-78
2021/09/09 00:12:26;;;;;;;9.77;8.32;;;18.00;99.90;;;;;;6176594;28;20535;-77
2021/09/09 00:15:27;;;;;;;10.48;8.00;;;18.10;99.90;;;;;;6177059;28;20042;-77
2021/09/09 00:18:28;;;;;;;10.77;8.00;;;18.10;99.90;;;;;;6176753;28;20056;-78
2021/09/09 00:21:28;;;;;;;11.48;8.40;;;17.90;99.90;;;;;;6160829;28;20420;-77
2021/09/09 00:24:29;;;;;;;9.15;8.02;;;18.20;99.90;;;;;;6176725;28;20026;-78
2021/09/09 00:27:29;;;;;;;9.20;8.23;;;17.90;99.90;;;;;;6176329;28;20105;-78
2021/09/09 00:30:30;;;;;;;11.02;8.32;;;17.90;99.90;;;;;;6194085;28;20031;-78
2021/09/09 00:33:31;;;;;;;12.90;8.40;;;17.90;99.90;;;;;;6193835;28;20042;-78
2021/09/09 00:36:31;;;;;;;9.60;8.23;;;17.90;99.90;;;;;;6160412;28;20133;-80
2021/09/09 00:39:32;;;;;;;10.65;8.60;;;18.20;99.90;;;;;;6176373;28;20103;-79
2021/09/09 00:42:32;;;;;;;12.93;8.73;;;18.00;99.90;;;;;;6176132;28;20038;-79
2021/09/09 00:45:33;;;;;;;11.48;9.35;;;18.10;99.90;;;;;;6193853;28;20084;-79
2021/09/09 00:48:34;;;;;;;9.57;8.07;;;17.90;99.90;;;;;;6160611;28;20497;-79
2021/09/09 00:51:34;;;;;;;11.10;8.77;;;17.80;99.90;;;;;;6144260;28;20034;-79
2021/09/09 00:54:35;;;;;;;10.07;8.48;;;18.00;99.90;;;;;;6176701;28;20030;-79
2021/09/09 00:57:36;;;;;;;9.45;8.40;;;;;;;;;;6164259;28;20073;-79
2021/09/09 01:00:37;;;;;;;9.57;8.43;;;18.20;99.90;;;;;;6180911;28;20026;-79
2021/09/09 01:03:38;;;;;;;12.27;7.90;;;18.30;99.90;;;;;;6148700;28;20424;-79
2021/09/09 01:06:38;;;;;;;13.00;9.02;;;18.20;99.90;;;;;;6164684;28;20081;-77
2021/09/09 01:09:39;;;;;;;13.07;9.88;;;18.30;99.90;;;;;;6197879;28;20034;-78
2021/09/09 01:12:39;;;;;;;10.73;9.48;;;18.40;99.90;;;;;;6164557;28;20026;-78
2021/09/09 01:15:43;;;;;;;11.35;10.25;;;18.10;99.90;;;;;;6164241;28;20030;-79
2021/09/09 01:18:44;;;;;;;15.05;10.02;;;18.20;99.90;;;;;;6164311;28;20492;-79
2021/09/09 01:21:45;;;;;;;13.15;9.43;;;17.80;99.90;;;;;;6164573;28;20038;-78
2021/09/09 01:24:45;;;;;;;13.60;9.82;;;18.00;99.90;;;;;;6198015;28;20026;-78
2021/09/09 01:27:46;;;;;;;12.18;9.40;;;18.20;99.90;;;;;;6179708;28;20426;-78
2021/09/09 01:30:46;;;;;;;10.25;9.20;;;18.20;99.90;;;;;;6197464;28;20026;-78
2021/09/09 01:33:47;;;;;;;11.27;9.07;;;17.80;99.90;;;;;;6197106;28;20045;-78
2021/09/09 01:36:47;;;;;;;11.48;9.18;;;18.20;99.90;;;;;;6179881;28;20074;-79
2021/09/09 01:39:48;;;;;;;9.98;8.93;;;17.80;99.90;;;;;;6163843;28;20041;-78
2021/09/09 01:42:48;;;;;;;10.48;8.82;;;18.10;99.90;;;;;;6179592;28;20551;-78
2021/09/09 01:45:50;;;;;;;12.27;8.98;;;;;;;;;;6197030;28;20032;-78
2021/09/09 01:48:50;;;;;;;11.38;8.93;;;;;;;;;;6197402;28;20456;-78
2021/09/09 01:51:51;;;;;;;10.57;9.52;;;;;;;;;;6197639;28;20108;-78
2021/09/09 01:54:52;;;;;;;12.25;9.00;;;;;;;;;;6197085;28;20038;-78
2021/09/09 01:57:53;;;;;;;10.00;8.77;;;;;;;;;;6179431;28;20508;-78
2021/09/09 02:00:57;;;;;;;11.35;8.68;;;17.50;99.90;;;;;;6179281;28;20034;-78
2021/09/09 02:03:58;;;;;;;10.52;9.38;;;;;;;;;;6179325;28;20026;-78
2021/09/09 02:06:59;;;;;;;11.13;9.67;;;;;;;;;;6195808;28;20796;-78
2021/09/09 02:10:00;;;;;;;9.80;8.68;;;;;;;;;;6196923;28;20026;-78
2021/09/09 02:13:01;;;;;;;10.50;9.07;;;;;;;;;;6196681;28;20030;-77
2021/09/09 02:16:02;;;;;;;11.02;9.73;;;17.10;99.90;;;;;;6196348;28;20532;-78
2021/09/09 02:19:03;;;;;;;10.18;8.68;;;;;;;;;;6163036;28;20026;-78
2021/09/09 02:22:04;;;;;;;10.93;8.60;;;17.40;99.90;;;;;;6178724;28;20053;-78
2021/09/09 02:25:05;;;;;;;11.35;9.68;;;17.70;99.90;;;;;;6162628;28;20161;-78
2021/09/09 02:28:06;;;;;;;11.00;8.80;;;17.30;99.90;;;;;;6178731;28;20082;-79
2021/09/09 02:31:06;;;;;;;10.82;9.02;;;17.30;99.90;;;;;;6178734;28;20061;-78
2021/09/09 02:34:07;;;;;;;10.52;8.65;;;17.40;99.90;;;;;;6196181;28;20044;-78
2021/09/09 02:37:08;;;;;;;10.50;8.48;;;17.60;99.90;;;;;;6178616;28;20388;-78
2021/09/09 02:40:09;;;;;;;12.63;9.73;;;17.20;99.90;;;;;;6178437;28;20113;-79
2021/09/09 02:43:10;;;;;;;13.63;9.50;;;17.30;99.90;;;;;;6162551;28;20027;-78
2021/09/09 02:46:10;;;;;;;9.10;8.20;;;17.10;99.90;;;;;;6162177;28;20045;-78
2021/09/09 02:49:11;;;;;;;10.00;9.00;;;17.30;99.90;;;;;;6178077;28;20023;-78
2021/09/09 02:52:12;;;;;;;10.63;8.77;;;17.40;99.90;;;;;;6178106;28;20038;-78
2021/09/09 02:55:12;;;;;;;10.30;9.20;;;17.40;99.90;;;;;;6196280;28;20038;-78
2021/09/09 02:58:13;;;;;;;10.23;9.23;;;17.50;99.90;;;;;;6178147;28;20113;-78
2021/09/09 03:01:13;;;;;;;10.20;8.93;;;17.60;99.90;;;;;;6178056;28;20080;-78
2021/09/09 03:04:14;;;;;;;10.82;9.40;;;17.40;99.90;;;;;;6195378;28;20030;-77
2021/09/09 03:07:14;;;;;;;11.68;9.82;;;17.40;99.90;;;;;;6195263;28;20045;-78
2021/09/09 03:10:15;;;;;;;10.13;9.05;;;17.40;99.90;;;;;;6195797;28;20022;-78
2021/09/09 03:13:16;;;;;;;11.23;9.10;;;17.30;99.90;;;;;;6177303;28;20057;-78
2021/09/09 03:16:16;;;;;;;12.63;9.07;;;17.70;99.90;;;;;;6195373;28;20026;-80
2021/09/09 03:19:17;;;;;;;11.52;10.27;;;17.40;99.90;;;;;;6194863;28;20118;-78
2021/09/09 03:22:17;;;;;;;10.80;9.70;;;17.30;99.90;;;;;;6161640;28;20105;-80
2021/09/09 03:25:18;;;;;;;13.43;9.52;;;17.30;99.90;;;;;;6177448;28;20033;-80
2021/09/09 03:28:19;;;;;;;15.73;9.95;;;17.30;99.90;;;;;;6177434;28;20090;-79
2021/09/09 03:31:19;;;;;;;12.10;9.73;;;17.40;99.90;;;;;;6194853;28;20041;-79
2021/09/09 03:34:20;;;;;;;11.88;10.13;;;;;;;;;;6176989;28;20519;-79
2021/09/09 03:37:21;;;;;;;10.50;9.40;;;17.50;99.90;;;;;;6163079;28;20134;-78
2021/09/09 03:40:21;;;;;;;10.43;8.98;;;17.40;99.90;;;;;;6147107;28;20113;-79
2021/09/09 03:43:22;;;;;;;12.13;9.68;;;17.50;99.90;;;;;;6155351;28;20159;-79
2021/09/09 03:46:22;;;;;;;12.32;9.68;;;17.50;99.90;;;;;;6147345;28;20034;-79
2021/09/09 03:49:23;;;;;;;17.75;13.07;;;17.50;99.90;;;;;;6147411;28;20039;-79
2021/09/09 03:52:24;;;;;;;11.80;9.50;;;17.50;99.90;;;;;;6129878;28;20035;-79
2021/09/09 03:55:24;;;;;;;12.80;10.07;;;17.30;99.90;;;;;;6146887;28;20489;-80
2021/09/09 03:58:25;;;;;;;12.95;8.55;;;17.60;99.90;;;;;;6145987;28;20039;-79
2021/09/09 04:01:26;;;;;;;10.88;8.45;;;;;;;;;;6145909;28;20465;-80
2021/09/09 04:04:26;;;;;;;10.95;8.38;;;17.70;99.90;;;;;;6146097;28;20035;-79
2021/09/09 04:07:27;;;;;;;10.23;9.23;;;17.60;99.90;;;;;;6146777;28;20091;-79
2021/09/09 04:10:27;;;;;;;12.02;9.20;;;17.70;99.90;;;;;;6146954;28;20028;-79
2021/09/09 04:13:28;;;;;;;10.35;8.38;;;17.70;99.90;;;;;;6129431;28;20040;-80
2021/09/09 04:16:29;;;;;;;9.77;8.77;;;;;;;;;;6129508;28;20030;-80
2021/09/09 04:19:30;;;;;;;12.13;9.13;;;17.70;99.90;;;;;;6145469;28;20027;-79
2021/09/09 04:22:31;;;;;;;10.35;9.25;;;17.90;99.90;;;;;;6147669;28;20354;-80
2021/09/09 04:25:32;;;;;;;11.75;8.85;;;17.80;99.90;;;;;;6168292;28;20050;-80
2021/09/09 04:28:32;;;;;;;10.38;9.30;;;18.10;99.90;;;;;;6168252;28;20030;-79
2021/09/09 04:31:34;;;;;;;12.05;8.70;;;;;;;;;;6163561;28;20369;-80
2021/09/09 04:34:35;;;;;;;10.40;8.98;;;17.90;99.90;;;;;;6172695;28;20138;-79
2021/09/09 04:37:36;;;;;;;15.35;13.73;;;;;;;;;;6157031;28;20801;-79
2021/09/09 04:40:36;;;;;;;17.08;13.82;;;18.00;99.90;;;;;;6164096;28;20426;-79
2021/09/09 04:43:37;;;;;;;12.27;8.70;;;18.20;99.90;;;;;;6151113;28;20089;-79
2021/09/09 04:46:38;;;;;;;11.23;8.52;;;17.90;99.90;;;;;;6133782;28;20373;-79
2021/09/09 04:49:38;;;;;;;12.77;9.98;;;18.20;99.90;;;;;;6151364;28;20035;-79
2021/09/09 04:52:39;;;;;;;11.70;9.85;;;18.10;99.90;;;;;;6151107;28;20019;-79
2021/09/09 04:55:39;;;;;;;11.25;9.10;;;18.30;99.90;;;;;;6151053;28;20492;-78
2021/09/09 04:58:40;;;;;;;10.02;8.93;;;18.20;99.90;;;;;;6150783;28;20028;-79
2021/09/09 05:01:40;;;;;;;10.38;9.30;;;18.20;99.90;;;;;;6149571;28;20031;-78
2021/09/09 05:04:41;;;;;;;9.77;8.40;;;18.30;99.90;;;;;;6149571;28;20090;-78
2021/09/09 05:07:42;;;;;;;9.52;8.50;;;18.30;99.90;;;;;;6149448;28;20019;-79
2021/09/09 05:10:42;;;;;;;10.82;9.60;;;18.30;99.90;;;;;;6150474;28;20071;-78
2021/09/09 05:13:44;;;;;;;10.93;8.93;;;18.50;99.90;;;;;;6150744;28;20177;-79
2021/09/09 05:16:44;;;;;;;10.50;8.45;;;18.60;99.90;;;;;;6133223;28;20039;-79
2021/09/09 05:19:45;;;;;;;10.02;9.02;;;18.30;99.90;;;;;;6150266;28;20119;-78
2021/09/09 05:22:46;;;;;;;10.65;8.88;;;18.60;99.90;;;;;;6149061;28;20462;-78
2021/09/09 05:25:46;;;;;;;9.63;8.73;;;18.60;99.90;;;;;;6148988;28;20054;-79
2021/09/09 05:28:47;;;;;;;10.05;8.55;;;18.70;99.90;;;;;;6132870;28;20493;-80
2021/09/09 05:31:47;;;;;;;13.35;9.18;;;18.70;99.90;;;;;;6133004;28;20038;-80
2021/09/09 05:34:48;;;;;;;14.20;8.77;;;18.80;99.90;;;;;;6149859;28;20027;-79
2021/09/09 05:37:49;;;;;;;9.52;8.55;;;;;;;;;;6153616;28;20047;-79
2021/09/09 05:40:50;;;;;;;11.18;8.43;;;;;;;;;;6149552;28;20130;-80
2021/09/09 05:43:51;;;;;;;11.13;8.80;;;18.80;99.90;;;;;;6149345;28;20031;-78
2021/09/09 05:46:52;;;;;;;10.00;8.25;;;;;;;;;;6151276;28;20647;-79
2021/09/09 05:49:53;;;;;;;13.40;9.70;;;;;;;;;;6149439;28;20347;-78
2021/09/09 05:52:54;;;;;;;11.25;9.50;;;;;;;;;;6149997;28;20052;-79
2021/09/09 05:55:55;;;;;;;9.73;8.73;;;;;;;;;;6148182;28;20027;-81
2021/09/09 05:58:56;;;;;;;10.48;8.57;;;19.30;99.90;;;;;;6148176;28;20445;-83
2021/09/09 06:01:57;;;;;;;10.68;8.25;;;;;;;;;;6168379;28;20057;-84
2021/09/09 06:04:59;;;;;;;11.40;8.40;;;19.00;99.90;;;;;;6171324;28;20029;-86
2021/09/09 06:07:59;;;;;;;9.32;8.30;;;19.30;99.90;;;;;;6147082;28;20456;-83
2021/09/09 06:11:00;;;;;;;10.80;8.55;;;19.20;99.90;;;;;;6154437;28;20111;-80
2021/09/09 06:14:01;;;;;;;9.75;7.70;;;;;;;;;;6154836;28;20034;-83
2021/09/09 06:17:02;;;;;;;10.20;8.07;;;19.50;99.90;;;;;;6151480;28;21156;-82
2021/09/09 06:20:04;;;;;;;11.52;8.60;;;19.60;99.90;;;;;;6134033;28;20031;-81
2021/09/09 06:23:04;;;;;;;10.90;8.57;;;19.60;99.90;;;;;;6147974;28;20063;-81
2021/09/09 06:26:05;;;;;;;10.65;9.55;;;19.70;99.90;;;;;;6147361;28;20417;-84
2021/09/09 06:29:06;;;;;;;10.98;8.85;;;;;;;;;;6134329;28;20046;-85
2021/09/09 06:32:07;;;;;;;11.85;8.60;;;19.70;99.90;;;;;;6170255;28;20085;-82
2021/09/09 06:35:08;;;;;;;8.60;7.80;;;19.70;99.90;;;;;;6154182;28;20035;-85
2021/09/09 06:38:08;;;;;;;9.43;7.63;;;19.60;99.90;;;;;;6144685;28;20055;-83
2021/09/09 06:41:09;;;;;;;11.45;10.25;;;;;;;;;;6148324;28;20038;-81
2021/09/09 06:44:13;;;;;;;9.10;7.68;;;19.70;99.90;;;;;;6146878;28;20023;-83
2021/09/09 06:47:13;;;;;;;9.45;8.25;;;19.90;99.90;;;;;;6119241;28;20035;-85
2021/09/09 06:50:14;;;;;;;11.98;8.48;;;19.80;99.90;;;;;;6116333;28;20038;-81
2021/09/09 06:53:14;;;;;;;14.20;8.65;;;19.90;99.90;;;;;;6124036;28;20461;-81
2021/09/09 06:56:15;;;;;;;12.60;8.43;;;19.90;99.90;;;;;;6144436;28;20083;-85
2021/09/09 06:59:15;;;;;;;10.88;8.05;;;19.90;99.90;;;;;;6122295;28;20035;-83
2021/09/09 07:02:16;;;;;;;10.30;8.07;;;19.90;99.90;;;;;;6153345;28;20089;-83
2021/09/09 07:05:16;;;;;;;11.73;8.23;;;19.90;99.90;;;;;;6146307;28;20027;-83
2021/09/09 07:08:17;;;;;;;9.57;8.57;;;19.90;99.90;;;;;;6149039;28;20042;-81
2021/09/09 07:11:18;;;;;;;10.05;7.43;;;19.90;99.90;;;;;;6148008;28;20533;-82
2021/09/09 07:14:19;;;;;;;9.38;7.75;;;;;;;;;;6130121;28;20143;-81
2021/09/09 07:17:19;;;;;;;9.05;8.15;;;20.10;99.90;;;;;;6145533;28;20098;-81
2021/09/09 07:20:20;;;;;;;8.73;7.82;;;20.10;99.90;;;;;;6130261;28;20038;-80
2021/09/09 07:23:20;;;;;;;9.70;8.52;;;20.20;99.90;;;;;;6129922;28;20084;-81
2021/09/09 07:26:21;;;;;;;11.93;7.78;;;20.10;99.90;;;;;;6146114;28;20035;-82
2021/09/09 07:29:22;;;;;;;8.52;7.60;;;20.20;99.90;;;;;;6130018;28;20023;-82
2021/09/09 07:32:23;;;;;;;10.23;8.18;;;20.40;99.90;;;;;;6137692;28;20373;-81
2021/09/09 07:35:23;;;;;;;9.90;7.60;;;20.50;99.90;;;;;;6130009;28;20027;-82
2021/09/09 07:38:24;;;;;;;9.55;7.40;;;20.60;99.90;;;;;;6174191;28;20067;-82
2021/09/09 07:41:24;;;;;;;7.72;6.95;;;20.90;99.90;;;;;;6144500;28;20605;-82
2021/09/09 07:44:25;;;;;;;10.60;6.22;;;;;;;;;;6134390;28;20035;-81
2021/09/09 07:47:26;;;;;;;8.27;6.60;;;21.20;96.10;;;;;;6145928;28;20023;-80
2021/09/09 07:50:26;;;;;;;8.55;6.78;;;21.40;98.00;;;;;;6129751;28;20119;-82
2021/09/09 07:53:27;;;;;;;7.05;6.35;;;21.50;96.20;;;;;;6160628;28;20047;-80
2021/09/09 07:56:28;;;;;;;6.85;6.15;;;21.60;96.80;;;;;;6148805;28;20019;-80
2021/09/09 07:59:28;;;;;;;8.73;6.05;;;21.30;96.20;;;;;;6113768;28;20581;-80
2021/09/09 08:02:29;;;;;;;7.55;6.75;;;22.10;96.10;;;;;;6146201;28;20101;-79
2021/09/09 08:05:29;;;;;;;8.57;6.55;;;21.90;96.30;;;;;;6150980;28;20137;-79
2021/09/09 08:08:30;;;;;;;6.90;6.20;;;22.00;96.00;;;;;;6167534;28;20027;-80
2021/09/09 08:11:31;;;;;;;8.23;6.35;;;22.00;96.10;;;;;;6161313;28;20046;-81
2021/09/09 08:14:31;;;;;;;6.72;6.03;;;22.00;96.30;;;;;;6154701;28;20489;-80
2021/09/09 08:17:32;;;;;;;7.45;6.53;;;22.00;95.00;;;;;;6155484;28;20141;-80
2021/09/09 08:20:33;;;;;;;6.97;5.63;;;22.10;95.00;;;;;;6152716;28;20034;-81
2021/09/09 08:23:33;;;;;;;7.07;6.25;;;22.20;95.20;;;;;;6137167;28;20018;-80
2021/09/09 08:26:34;;;;;;;13.35;7.45;;;22.20;94.70;;;;;;6155699;28;20102;-87
2021/09/09 08:29:35;;;;;;;8.30;7.05;;;22.30;94.90;;;;;;6151225;28;20058;-80
2021/09/09 08:32:35;;;;;;;7.95;6.35;;;22.40;94.90;;;;;;6168654;28;20074;-80
2021/09/09 08:35:36;;;;;;;10.63;6.80;;;22.40;95.10;;;;;;6172780;28;20027;-78
2021/09/09 08:38:36;;;;;;;12.45;8.15;;;22.40;96.40;;;;;;6193729;28;20485;-79
2021/09/09 08:41:37;;;;;;;9.85;8.05;;;22.40;99.90;;;;;;6181052;28;20026;-78
2021/09/09 08:44:38;;;;;;;14.27;8.23;;;;;;;;;;6181002;28;20377;-79
2021/09/09 08:47:39;;;;;;;11.43;8.25;;;22.20;99.90;;;;;;6198218;28;20054;-78
2021/09/09 08:50:40;;;;;;;9.85;7.88;;;22.10;99.90;;;;;;6164893;28;20104;-79
2021/09/09 08:53:40;;;;;;;10.32;8.10;;;22.00;99.90;;;;;;6180046;28;20395;-80
2021/09/09 08:56:41;;;;;;;12.45;8.27;;;22.10;99.90;;;;;;6180569;28;20066;-80
2021/09/09 08:59:42;;;;;;;8.98;7.85;;;;;;;;;;6180340;28;20418;-80
2021/09/09 09:02:50;;;;;;;8.85;6.95;;;22.20;99.90;;;;;;6198116;28;20407;-80
2021/09/09 09:05:51;;;;;;;9.95;8.80;;;22.50;99.90;;;;;;6181042;28;20026;-81
2021/09/09 09:08:58;;;;;;;7.80;6.85;;;22.30;96.50;;;;;;6179675;28;20022;-80
2021/09/09 09:11:59;;;;;;;7.10;6.22;;;22.40;95.90;;;;;;6180229;28;20030;-80
2021/09/09 09:15:19;;;;;;;8.63;6.50;;;22.50;94.30;;;;;;6179780;28;21011;-80
2021/09/09 09:18:20;;;;;;;7.78;6.40;;;22.60;92.70;;;;;;6180482;28;20304;-80
2021/09/09 09:21:20;;;;;;;9.00;6.57;;;22.80;92.40;;;;;;6197704;28;20026;-81
2021/09/09 09:24:21;;;;;;;8.83;5.93;;;22.80;89.80;;;;;;6179569;28;20038;-80
2021/09/09 09:27:22;;;;;;;8.10;5.88;;;22.80;87.70;;;;;;6180523;28;20088;-80
2021/09/09 09:30:23;;;;;;;8.20;5.95;;;22.90;89.10;;;;;;6179757;28;20030;-80
2021/09/09 09:33:31;;;;;;;6.87;5.80;;;23.00;89.70;;;;;;6179905;28;20038;-80
2021/09/09 09:36:36;;;;;;;6.40;5.65;;;23.10;88.00;;;;;;6179748;28;20088;-79
2021/09/09 09:39:37;;;;;;;7.97;6.10;;;23.20;86.70;;;;;;6179694;28;20088;-79
2021/09/09 09:42:37;;;;;;;8.05;5.90;;;23.20;87.80;;;;;;6197064;28;20480;-81
2021/09/09 09:45:48;;;;;;;6.97;5.90;;;23.30;87.00;;;;;;6179280;28;20026;-80
2021/09/09 09:48:48;;;;;;;6.95;5.90;;;23.50;88.20;;;;;;6163718;28;20523;-81
2021/09/09 09:51:49;;;;;;;7.53;5.97;;;23.60;88.20;;;;;;6179280;28;20026;-81
2021/09/09 09:54:54;;;;;;;7.07;6.13;;;23.60;85.70;;;;;;6196326;28;20665;-80
2021/09/09 09:57:55;;;;;;;7.07;6.07;;;23.80;85.50;;;;;;6159980;28;20034;-79
2021/09/09 10:00:55;;;;;;;6.77;6.03;;;24.10;95.60;;;;;;6160694;28;20479;-80
2021/09/09 10:03:59;;;;;;;6.80;6.10;;;24.10;87.10;;;;;;6160195;28;20129;-80
2021/09/09 10:07:00;;;;;;;9.23;6.60;;;24.30;83.70;;;;;;6160858;28;20030;-80
2021/09/09 10:10:01;;;;;;;7.03;5.80;;;25.10;94.40;;;;;;6159725;28;20034;-80
2021/09/09 10:13:02;;;;;;;8.80;6.30;;;25.30;94.40;;;;;;6160625;28;20061;-80
2021/09/09 10:16:02;;;;;;;6.73;5.70;;;25.50;92.30;;;;;;6160185;28;20099;-81
2021/09/09 10:19:03;;;;;;;7.20;6.10;;;25.40;93.30;;;;;;6175637;28;20078;-80
2021/09/09 10:22:08;;;;;;;7.87;6.00;;;25.70;94.30;;;;;;6193984;28;20051;-80
2021/09/09 10:25:12;;;;;;;6.72;5.80;;;25.50;98.60;;;;;;6175556;28;20117;-80
2021/09/09 10:28:32;;;;;;;6.75;6.05;;;26.10;89.40;;;;;;6161233;28;20037;-80
2021/09/09 10:31:41;;;;;;;9.15;6.68;;;26.20;98.50;;;;;;6195216;28;20030;-80
2021/09/09 10:34:42;;;;;;;13.85;6.53;;;;;;;;;;6162603;28;20092;-80
2021/09/09 10:37:43;;;;;;;6.17;5.50;;;26.40;86.00;;;;;;6177847;28;20050;-80
2021/09/09 10:40:44;;;;;;;6.82;6.13;;;26.60;91.50;;;;;;6178024;28;20031;-81
2021/09/09 10:43:46;;;;;;;7.00;6.30;;;26.50;78.90;;;;;;6177875;28;20110;-80
2021/09/09 10:46:49;;;;;;;8.95;6.35;;;26.70;80.50;;;;;;6146434;28;20475;-80
2021/09/09 10:50:03;;;;;;;8.75;5.97;;;26.50;77.40;;;;;;6177970;28;20417;-79
2021/09/09 10:53:07;;;;;;;6.75;5.88;;;26.50;78.30;;;;;;6178320;28;20062;-81
2021/09/09 10:56:14;;;;;;;8.98;5.90;;;26.50;76.40;;;;;;6178048;28;20070;-80
2021/09/09 10:59:15;;;;;;;6.72;5.88;;;26.40;73.30;;;;;;6194874;28;20038;-80
2021/09/09 11:02:16;;;;;;;5.82;5.25;;;26.10;72.60;;;;;;6176787;28;20114;-81
2021/09/09 11:05:17;;;;;;;7.50;5.72;;;26.00;73.90;;;;;;6176026;28;20132;-82
2021/09/09 11:08:26;;;;;;;7.47;6.30;;;25.90;73.50;;;;;;6174980;28;20045;-81
2021/09/09 11:11:29;;;;;;;6.43;5.65;;;25.80;73.60;;;;;;6160972;28;20121;-85
2021/09/09 11:14:30;;;;;;;7.57;5.78;;;25.70;73.20;;;;;;6160552;28;20092;-82
2021/09/09 11:17:31;;;;;;;9.93;6.38;;;25.70;70.20;;;;;;6143524;28;20350;-79
2021/09/09 11:20:31;;;;;;;6.53;5.83;;;25.50;73.20;;;;;;6176523;28;20019;-80
2021/09/09 11:23:33;;;;;;;7.03;5.93;;;25.60;70.40;;;;;;6176152;28;20125;-80
2021/09/09 11:26:38;;;;;;;6.68;6.07;;;25.60;70.90;;;;;;6194326;28;20085;-80
2021/09/09 11:29:38;;;;;;;6.00;5.40;;;25.70;72.60;;;;;;6161412;28;20034;-80
2021/09/09 11:32:39;;;;;;;9.40;5.63;;;25.40;71.00;;;;;;6161554;28;20492;-80
2021/09/09 11:35:40;;;;;;;7.17;6.47;;;25.50;71.60;;;;;;6161192;28;20053;-79
2021/09/09 11:38:40;;;;;;;8.67;5.90;;;25.40;71.70;;;;;;6152716;28;20066;-81
2021/09/09 11:41:41;;;;;;;7.40;6.63;;;25.50;88.80;;;;;;6168734;28;20061;-79
2021/09/09 11:44:42;;;;;;;10.13;5.63;;;25.30;94.10;;;;;;6169033;28;20031;-79
2021/09/09 11:47:43;;;;;;;8.53;5.93;;;;;;;;;;6158351;28;20078;-80
2021/09/09 11:50:47;;;;;;;5.90;5.40;;;25.10;94.40;;;;;;6154033;28;20041;-80
2021/09/09 11:53:50;;;;;;;6.47;5.75;;;25.20;83.60;;;;;;6152502;28;20591;-80
2021/09/09 11:56:51;;;;;;;7.80;6.00;;;;;;;;;;6131268;28;20454;-81
2021/09/09 11:59:55;;;;;;;7.78;6.07;;;25.10;78.90;;;;;;6145356;28;20038;-80
2021/09/09 12:02:56;;;;;;;6.82;5.72;;;25.30;73.00;;;;;;6113647;28;20023;-80
2021/09/09 12:05:56;;;;;;;9.13;6.70;;;25.30;72.50;;;;;;6136185;28;20377;-84
2021/09/09 12:08:57;;;;;;;7.87;6.33;;;25.20;74.20;;;;;;6152242;28;20054;-79
2021/09/09 12:12:09;;;;;;;7.15;5.65;;;25.20;73.20;;;;;;6163561;28;20101;-85
2021/09/09 12:47:21;;;;;;;8.05;6.30;;;26.30;94.50;;;;;;6144886;29;20066;-87
2021/09/09 12:51:04;;;;;;;6.10;5.50;;;26.20;69.60;;;;;;6111456;28;20039;-88
2021/09/09 12:54:08;;;;;;;7.45;6.32;;;26.40;87.00;;;;;;6097818;29;20085;-90
2021/09/09 12:57:09;;;;;;;7.88;6.40;;;26.90;72.70;;;;;;6081716;29;20040;-84
2021/09/09 13:00:10;;;;;;;10.40;6.03;;;26.30;86.90;;;;;;6084412;29;20111;-85
2021/09/09 13:03:11;;;;;;;7.03;6.13;;;25.90;86.70;;;;;;6083662;29;20631;-86
2021/09/09 13:06:11;;;;;;;10.40;6.43;;;26.40;94.30;;;;;;6067348;29;20032;-78
2021/09/09 13:09:13;;;;;;;9.77;6.37;;;26.40;95.30;;;;;;6083297;29;20040;-84
2021/09/09 13:12:14;;;;;;;7.88;6.00;;;;;;;;;;6083460;29;20036;-81
2021/09/09 13:15:15;;;;;;;13.07;6.03;;;;;;;;;;6083625;29;20458;-83
2021/09/09 13:18:16;;;;;;;7.25;5.72;;;26.20;90.70;;;;;;6084094;29;20064;-86
2021/09/09 13:21:30;;;;;;;6.93;5.93;;;26.20;85.00;;;;;;6065722;29;20722;-84
2021/09/09 13:24:31;;;;;;;8.75;6.80;;;26.00;95.60;;;;;;6142235;28;20041;-84
2021/09/09 13:27:35;;;;;;;9.83;6.60;;;;;;;;;;6137260;28;20066;-79
2021/09/09 13:30:39;;;;;;;7.07;6.30;;;26.00;95.70;;;;;;6223702;28;20455;-80
2021/09/09 13:33:39;;;;;;;8.90;6.05;;;26.00;95.60;;;;;;6244941;28;20036;-81
2021/09/09 13:36:42;;;;;;;7.07;5.70;;;26.10;95.50;;;;;;6244844;28;20353;-78
2021/09/09 13:39:43;;;;;;;8.82;6.45;;;;;;;;;;6228705;28;20124;-78
2021/09/09 13:42:44;;;;;;;8.95;6.05;;;;;;;;;;6245697;28;20033;-83
2021/09/09 13:45:45;;;;;;;6.80;6.10;;;;;;;;;;6244084;28;20050;-83
2021/09/09 13:48:46;;;;;;;8.48;5.85;;;26.20;90.70;;;;;;6244660;28;20033;-83
2021/09/09 13:51:52;;;;;;;8.17;5.80;;;;;;;;;;6245769;28;20024;-84
2021/09/09 13:54:53;;;;;;;7.70;6.60;;;26.10;78.70;;;;;;6244515;28;20128;-84
2021/09/09 13:57:54;;;;;;;6.30;5.63;;;26.20;72.70;;;;;;6227914;28;20044;-81
2021/09/09 14:00:54;;;;;;;8.13;6.17;;;26.40;90.10;;;;;;6245066;28;20100;-82
2021/09/09 14:03:58;;;;;;;9.97;6.00;;;26.30;74.80;;;;;;6261217;28;20132;-83
2021/09/09 14:07:04;;;;;;;7.05;6.35;;;27.10;90.70;;;;;;6246351;28;20037;-88
2021/09/09 14:10:13;;;;;;;6.80;6.10;;;27.20;87.00;;;;;;6246008;28;20029;-86
2021/09/09 14:13:13;;;;;;;8.00;5.82;;;27.50;74.30;;;;;;6211758;28;20041;-83
2021/09/09 14:16:20;;;;;;;7.53;5.73;;;28.00;86.50;;;;;;6245650;28;20079;-87
2021/09/09 14:19:21;;;;;;;8.77;6.28;;;;;;;;;;6245022;28;20025;-84
2021/09/09 14:22:22;;;;;;;8.52;6.18;;;;;;;;;;6243977;28;20430;-85
2021/09/09 14:25:23;;;;;;;7.18;6.25;;;28.50;68.70;;;;;;6245756;28;20022;-86
2021/09/09 14:28:29;;;;;;;7.83;5.73;;;28.50;84.40;;;;;;6243626;28;20037;-88
2021/09/09 14:31:33;;;;;;;9.73;6.10;;;28.40;84.20;;;;;;6229055;28;20341;-90
2021/09/09 14:38:29;;;;;;;9.30;6.03;;;;;;;;;;6256839;28;20025;-90
2021/09/09 14:41:39;;;;;;;6.28;5.43;;;;;;;;;;6243989;28;20025;-88
2021/09/09 14:44:40;;;;;;;6.75;5.68;;;;;;;;;;6242910;28;20041;-81
2021/09/09 14:51:58;;;;;;;7.40;6.25;;;27.80;84.40;;;;;;6238470;28;20029;-88
2021/09/09 14:54:59;;;;;;;7.03;5.37;;;27.70;70.70;;;;;;6224047;28;20148;-82
2021/09/09 14:57:59;;;;;;;7.90;5.77;;;26.70;70.50;;;;;;6239160;28;20037;-82
2021/09/09 15:01:00;;;;;;;8.77;5.20;;;;;;;;;;6240659;28;20030;-82
2021/09/09 15:04:01;;;;;;;8.98;5.95;;;27.70;69.10;;;;;;6223275;28;20061;-81
2021/09/09 15:07:02;;;;;;;7.53;5.73;;;27.60;69.60;;;;;;6239674;28;20075;-81
2021/09/09 15:10:02;;;;;;;6.60;5.30;;;27.30;69.20;;;;;;6207074;28;20395;-80
2021/09/09 15:13:03;;;;;;;6.90;6.20;;;27.00;88.50;;;;;;6241065;28;20053;-80
2021/09/09 15:16:05;;;;;;;6.60;5.83;;;27.00;73.80;;;;;;6223417;28;20051;-80
2021/09/09 15:19:05;;;;;;;6.90;6.30;;;27.00;74.20;;;;;;6224015;28;20029;-80
2021/09/09 15:22:06;;;;;;;6.10;5.50;;;27.00;72.90;;;;;;6241912;28;20038;-80
2021/09/09 15:25:07;;;;;;;7.93;5.40;;;27.00;71.60;;;;;;6242276;28;20103;-80
2021/09/09 15:28:08;;;;;;;;;;;27.00;70.50;;;;;;6242837;28;20017;-79
2021/09/09 15:31:09;;;;;;;6.45;5.80;;;27.00;69.70;;;;;;6242474;28;19972;-79
2021/09/09 15:34:10;;;;;;;7.13;6.43;;;26.90;70.30;;;;;;6242256;28;20041;-79
2021/09/09 15:37:11;;;;;;;8.45;5.93;;;24.90;71.00;;;;;;6241690;28;20036;-79
2021/09/09 15:40:12;;;;;;;6.87;5.90;;;26.40;87.70;;;;;;6257599;28;20029;-79
2021/09/09 15:43:12;;;;;;;8.70;5.50;;;26.30;72.90;;;;;;6242417;28;20026;-79
2021/09/09 15:46:13;;;;;;;7.03;6.20;;;26.00;89.00;;;;;;6241225;28;20129;-79
2021/09/09 15:49:13;;;;;;;6.37;5.67;;;25.80;95.50;;;;;;6241685;28;20024;-79
2021/09/09 15:52:14;;;;;;;8.77;6.37;;;25.40;95.60;;;;;;6241899;28;20038;-79
2021/09/09 15:55:14;;;;;;;9.10;5.37;;;25.20;96.00;;;;;;6258417;28;20025;-80
2021/09/09 15:58:15;;;;;;;6.90;6.20;;;25.00;96.60;;;;;;6257923;28;20100;-79
2021/09/09 16:01:17;;;;;;;7.23;6.47;;;24.90;90.40;;;;;;6241911;28;20018;-79
2021/09/09 16:04:18;;;;;;;6.30;5.70;;;;;;;;;;6241900;28;20017;-79
2021/09/09 16:07:19;;;;;;;6.37;5.77;;;24.80;98.10;;;;;;6243240;28;20111;-80
2021/09/09 16:10:20;;;;;;;7.10;6.40;;;;;;;;;;6257466;28;20030;-80
2021/09/09 16:13:20;;;;;;;7.20;5.70;;;24.40;98.60;;;;;;6242793;28;20527;-80
2021/09/09 16:16:21;;;;;;;9.30;6.00;;;24.40;98.20;;;;;;6242724;28;20416;-81
2021/09/09 16:19:22;;;;;;;8.83;5.87;;;;;;;;;;6241426;28;20108;-80
2021/09/09 16:22:23;;;;;;;6.63;5.67;;;;;;;;;;6258397;28;20035;-82
2021/09/09 16:25:24;;;;;;;7.03;5.33;;;;;;;;;;6242716;28;20652;-85
2021/09/09 16:28:25;;;;;;;6.85;5.65;;;;;;;;;;6245805;28;20034;-83
2021/09/09 16:31:26;;;;;;;6.27;5.63;;;24.10;85.70;;;;;;6263471;28;20486;-83
2021/09/09 16:34:27;;;;;;;7.80;5.93;;;24.10;78.10;;;;;;6246608;28;20120;-83
2021/09/09 16:37:27;;;;;;;6.50;5.90;;;24.00;79.20;;;;;;6230201;28;20029;-81
2021/09/09 16:40:28;;;;;;;7.50;6.67;;;24.00;80.10;;;;;;6245380;28;20036;-80